createdAt,value
2023-11-07T00:00:13.735Z,8.68
2023-11-07T00:02:40.554Z,8.69
2023-11-07T00:05:10.164Z,8.67
2023-11-07T00:07:37.600Z,8.68
2023-11-07T00:10:04.711Z,8.65
2023-11-07T00:12:31.259Z,8.62
2023-11-07T00:14:57.866Z,8.59
2023-11-07T00:17:24.722Z,8.59
2023-11-07T00:19:51.249Z,8.56
2023-11-07T00:22:17.818Z,8.56
2023-11-07T00:24:44.910Z,8.57
2023-11-07T00:27:11.525Z,8.58
2023-11-07T00:29:38.056Z,8.56
2023-11-07T00:32:04.997Z,8.58
2023-11-07T00:34:31.609Z,8.59
2023-11-07T00:36:58.098Z,8.58
2023-11-07T00:39:24.638Z,8.57
2023-11-07T00:41:51.167Z,8.58
2023-11-07T00:44:19.348Z,8.59
2023-11-07T00:46:45.884Z,8.58
2023-11-07T00:49:12.565Z,8.60
2023-11-07T00:51:39.937Z,8.59
2023-11-07T00:54:06.597Z,8.60
2023-11-07T00:56:33.180Z,8.59
2023-11-07T00:58:59.828Z,8.58
2023-11-07T01:01:26.439Z,8.58
2023-11-07T01:03:53.117Z,8.57
2023-11-07T01:06:19.910Z,8.59
2023-11-07T01:08:46.730Z,8.58
2023-11-07T01:11:13.961Z,8.60
2023-11-07T01:13:41.025Z,8.62
2023-11-07T01:16:08.175Z,8.62
2023-11-07T01:18:34.937Z,8.65
2023-11-07T01:21:01.642Z,8.63
2023-11-07T01:23:28.221Z,8.62
2023-11-07T01:25:55.072Z,8.61
2023-11-07T01:28:22.460Z,8.60
2023-11-07T01:30:52.428Z,8.64
2023-11-07T01:33:19.097Z,8.64
2023-11-07T01:35:46.039Z,8.63
2023-11-07T01:38:12.644Z,8.62
2023-11-07T01:40:39.321Z,8.61
2023-11-07T01:43:13.774Z,8.62
2023-11-07T01:45:41.305Z,8.62
2023-11-07T01:48:14.840Z,8.62
2023-11-07T01:50:41.918Z,8.63
2023-11-07T01:53:09.560Z,8.62
2023-11-07T01:55:36.946Z,8.60
2023-11-07T01:58:04.110Z,8.59
2023-11-07T02:00:31.812Z,8.56
2023-11-07T02:02:59.679Z,8.56
2023-11-07T02:05:30.305Z,8.60
2023-11-07T02:07:56.938Z,8.61
2023-11-07T02:10:23.477Z,8.63
2023-11-07T02:12:50.102Z,8.61
2023-11-07T02:15:27.426Z,8.63
2023-11-07T02:17:55.183Z,8.60
2023-11-07T02:20:22.026Z,8.61
2023-11-07T02:22:56.662Z,8.59
2023-11-07T02:25:23.275Z,8.61
2023-11-07T02:27:49.768Z,8.61
2023-11-07T02:30:16.411Z,8.62
2023-11-07T02:32:44.223Z,8.63
2023-11-07T02:35:12.374Z,8.61
2023-11-07T02:37:39.583Z,8.60
2023-11-07T02:40:07.649Z,8.59
2023-11-07T02:42:34.582Z,8.58
2023-11-07T02:45:01.191Z,8.59
2023-11-07T02:47:27.691Z,8.59
2023-11-07T02:49:55.215Z,8.59
2023-11-07T02:52:22.384Z,8.58
2023-11-07T02:54:49.897Z,8.60
2023-11-07T02:57:16.586Z,8.60
2023-11-07T02:59:49.420Z,8.57
2023-11-07T03:02:18.224Z,8.58
2023-11-07T03:04:45.170Z,8.61
2023-11-07T03:07:12.009Z,8.63
2023-11-07T03:09:38.734Z,8.62
2023-11-07T03:12:05.708Z,8.64
2023-11-07T03:14:33.561Z,8.64
2023-11-07T03:17:00.138Z,8.66
2023-11-07T03:19:26.704Z,8.67
2023-11-07T03:21:54.196Z,8.68
2023-11-07T03:24:20.777Z,8.71
2023-11-07T03:26:47.314Z,8.69
2023-11-07T03:29:14.081Z,8.70
2023-11-07T03:31:41.174Z,8.73
2023-11-07T03:34:07.795Z,8.70
2023-11-07T03:36:34.309Z,8.72
2023-11-07T03:39:01.111Z,8.72
2023-11-07T03:41:27.851Z,8.74
2023-11-07T03:43:54.742Z,8.77
2023-11-07T03:46:21.781Z,8.78
2023-11-07T03:48:48.633Z,8.78
2023-11-07T03:51:15.484Z,8.80
2023-11-07T03:53:42.447Z,8.79
2023-11-07T03:56:10.597Z,8.80
2023-11-07T03:58:37.228Z,8.81
2023-11-07T04:01:04.836Z,8.84
2023-11-07T04:03:31.507Z,8.84
2023-11-07T04:05:58.420Z,8.85
2023-11-07T04:08:25.662Z,8.86
2023-11-07T04:10:52.284Z,8.85
2023-11-07T04:13:18.795Z,8.84
2023-11-07T04:15:45.402Z,8.83
2023-11-07T04:18:12.259Z,8.82
2023-11-07T04:20:39.733Z,8.77
2023-11-07T04:23:06.330Z,8.75
2023-11-07T04:25:33.128Z,8.73
2023-11-07T04:27:59.638Z,8.71
2023-11-07T04:30:26.301Z,8.72
2023-11-07T04:32:52.900Z,8.69
2023-11-07T04:35:19.667Z,8.66
2023-11-07T04:37:46.178Z,8.63
2023-11-07T04:40:12.847Z,8.63
2023-11-07T04:42:39.381Z,8.62
2023-11-07T04:45:08.460Z,8.61
2023-11-07T04:47:35.250Z,8.60
2023-11-07T04:50:01.952Z,8.58
2023-11-07T04:52:28.517Z,8.58
2023-11-07T04:54:55.076Z,8.58
2023-11-07T04:57:22.279Z,8.55
2023-11-07T04:59:49.064Z,8.55
2023-11-07T05:02:16.805Z,8.55
2023-11-07T05:04:46.996Z,8.54
2023-11-07T05:07:14.561Z,8.53
2023-11-07T05:09:41.168Z,8.50
2023-11-07T05:12:09.128Z,8.47
2023-11-07T05:14:36.027Z,8.47
2023-11-07T05:17:02.648Z,8.43
2023-11-07T05:19:29.194Z,8.41
2023-11-07T05:21:56.132Z,8.40
2023-11-07T05:24:23.241Z,8.36
2023-11-07T05:26:49.778Z,8.32
2023-11-07T05:29:16.775Z,8.30
2023-11-07T05:31:43.495Z,8.31
2023-11-07T05:34:10.316Z,8.29
2023-11-07T05:36:36.992Z,8.28
2023-11-07T05:39:04.005Z,8.31
2023-11-07T05:41:31.542Z,8.32
2023-11-07T05:43:58.071Z,8.30
2023-11-07T05:46:24.798Z,8.30
2023-11-07T05:48:52.770Z,8.26
2023-11-07T05:51:20.858Z,8.24
2023-11-07T05:53:47.419Z,8.22
2023-11-07T05:56:13.931Z,8.21
2023-11-07T05:58:40.503Z,8.20
2023-11-07T06:01:07.169Z,8.19
2023-11-07T06:03:33.832Z,8.18
2023-11-07T06:06:00.624Z,8.18
2023-11-07T06:08:27.290Z,8.19
2023-11-07T06:10:53.916Z,8.22
2023-11-07T06:13:20.424Z,8.24
2023-11-07T06:15:47.004Z,8.26
2023-11-07T06:18:13.580Z,8.26
2023-11-07T06:20:40.162Z,8.27
2023-11-07T06:23:06.827Z,8.27
2023-11-07T06:25:35.074Z,8.28
2023-11-07T06:28:01.867Z,8.30
2023-11-07T06:30:31.102Z,8.28
2023-11-07T06:32:58.699Z,8.30
2023-11-07T06:35:25.392Z,8.28
2023-11-07T06:37:51.918Z,8.27
2023-11-07T06:40:19.847Z,8.28
2023-11-07T06:42:47.418Z,8.28
2023-11-07T06:45:15.147Z,8.27
2023-11-07T06:47:43.610Z,8.28
2023-11-07T06:50:11.725Z,8.28
2023-11-07T06:52:48.630Z,8.27
2023-11-07T06:55:15.800Z,8.25
2023-11-07T06:57:43.453Z,8.25
2023-11-07T07:00:11.077Z,8.28
2023-11-07T07:02:38.650Z,8.28
2023-11-07T07:05:05.794Z,8.31
2023-11-07T07:07:32.405Z,8.29
2023-11-07T07:09:59.335Z,8.29
2023-11-07T07:12:26.069Z,8.34
2023-11-07T07:14:53.136Z,8.34
2023-11-07T07:17:20.483Z,8.36
2023-11-07T07:19:47.250Z,8.40
2023-11-07T07:22:13.790Z,8.36
2023-11-07T07:24:41.117Z,8.38
2023-11-07T07:27:09.649Z,8.39
2023-11-07T07:29:37.968Z,8.40
2023-11-07T07:32:04.825Z,8.42
2023-11-07T07:34:33.406Z,8.43
2023-11-07T07:37:00.059Z,8.46
2023-11-07T07:39:30.602Z,8.47
2023-11-07T07:41:59.742Z,8.45
2023-11-07T07:44:26.818Z,8.46
2023-11-07T07:46:54.885Z,8.46
2023-11-07T07:49:26.419Z,8.46
2023-11-07T07:51:56.864Z,8.46
2023-11-07T07:54:43.303Z,8.47
2023-11-07T07:57:10.919Z,8.50
2023-11-07T07:59:43.072Z,8.51
2023-11-07T08:02:10.543Z,8.51
2023-11-07T08:04:37.349Z,8.50
2023-11-07T08:07:05.117Z,8.48
2023-11-07T08:09:31.828Z,8.45
2023-11-07T08:11:58.354Z,8.45
2023-11-07T08:14:24.982Z,8.40
2023-11-07T08:16:54.020Z,8.40
2023-11-07T08:19:21.652Z,8.39
2023-11-07T08:21:50.832Z,8.38
2023-11-07T08:24:17.929Z,8.41
2023-11-07T08:26:45.037Z,8.43
2023-11-07T08:29:12.259Z,8.47
2023-11-07T08:31:40.053Z,8.52
2023-11-07T08:34:10.654Z,8.56
2023-11-07T08:36:43.723Z,8.60
2023-11-07T08:39:28.412Z,8.66
2023-11-07T08:41:56.155Z,8.76
2023-11-07T08:44:23.262Z,8.84
2023-11-07T08:46:50.494Z,8.91
2023-11-07T08:49:17.638Z,8.94
2023-11-07T08:51:45.873Z,9.00
2023-11-07T08:54:12.362Z,9.04
2023-11-07T08:56:38.962Z,9.06
2023-11-07T08:59:05.463Z,9.00
2023-11-07T09:01:32.043Z,8.97
2023-11-07T09:03:58.707Z,8.96
2023-11-07T09:06:25.315Z,8.97
2023-11-07T09:08:52.677Z,8.94
2023-11-07T09:11:20.527Z,8.93
2023-11-07T09:13:47.064Z,8.89
2023-11-07T09:16:14.729Z,8.88
2023-11-07T09:18:41.333Z,8.86
2023-11-07T09:21:08.023Z,8.83
2023-11-07T09:23:36.870Z,8.85
2023-11-07T09:26:04.198Z,8.86
2023-11-07T09:28:30.741Z,8.85
2023-11-07T09:30:58.508Z,8.89
2023-11-07T09:33:25.089Z,8.93
2023-11-07T09:35:51.950Z,8.94
2023-11-07T09:38:18.540Z,8.92
2023-11-07T09:40:45.535Z,8.91
2023-11-07T09:43:13.598Z,8.89
2023-11-07T09:45:41.704Z,8.91
2023-11-07T09:48:11.568Z,8.91
2023-11-07T09:50:42.829Z,8.93
2023-11-07T09:53:14.244Z,9.01
2023-11-07T09:55:41.205Z,9.11
2023-11-07T09:58:15.648Z,9.21
2023-11-07T10:00:45.496Z,9.30
2023-11-07T10:03:13.404Z,9.43
2023-11-07T10:05:40.946Z,9.48
2023-11-07T10:08:07.842Z,9.54
2023-11-07T10:10:35.506Z,9.57
2023-11-07T10:13:12.578Z,9.60
2023-11-07T10:15:40.572Z,9.62
2023-11-07T10:18:12.878Z,9.74
2023-11-07T10:20:54.483Z,9.81
2023-11-07T10:23:22.265Z,9.86
2023-11-07T10:25:51.387Z,9.91
2023-11-07T10:28:21.500Z,9.96
2023-11-07T10:30:49.656Z,10.02
2023-11-07T10:33:29.806Z,10.08
2023-11-07T10:36:00.641Z,10.09
2023-11-07T10:38:28.130Z,10.12
2023-11-07T10:40:54.596Z,10.15
2023-11-07T10:43:40.881Z,10.21
2023-11-07T10:46:12.011Z,10.24
2023-11-07T10:48:40.934Z,10.37
2023-11-07T10:51:12.426Z,10.44
2023-11-07T10:53:43.951Z,10.47
2023-11-07T10:56:21.299Z,10.55
2023-11-07T10:59:01.210Z,10.56
2023-11-07T11:01:34.844Z,10.56
2023-11-07T11:04:03.104Z,10.65
2023-11-07T11:06:33.051Z,10.71
2023-11-07T11:09:02.644Z,10.65
2023-11-07T11:11:34.949Z,10.69
2023-11-07T11:14:05.164Z,10.70
2023-11-07T11:16:32.889Z,10.72
2023-11-07T11:19:10.722Z,10.77
2023-11-07T11:21:56.169Z,10.78
2023-11-07T11:24:59.640Z,10.92
2023-11-07T11:27:37.055Z,11.05
2023-11-07T11:30:07.005Z,10.97
2023-11-07T11:32:34.127Z,10.95
2023-11-07T11:35:18.984Z,11.01
2023-11-07T11:38:17.861Z,11.22
2023-11-07T11:40:56.900Z,11.32
2023-11-07T11:43:27.639Z,11.32
2023-11-07T11:46:03.271Z,11.42
2023-11-07T11:48:52.204Z,11.60
2023-11-07T11:51:33.528Z,11.70
2023-11-07T11:54:00.796Z,11.67
2023-11-07T11:56:27.576Z,11.70
2023-11-07T11:59:12.309Z,11.75
2023-11-07T12:01:53.609Z,11.82
2023-11-07T12:04:49.217Z,11.81
2023-11-07T12:07:16.106Z,11.72
2023-11-07T12:09:51.439Z,11.78
2023-11-07T12:12:19.337Z,11.99
2023-11-07T12:14:58.035Z,11.97
2023-11-07T12:17:30.249Z,12.03
2023-11-07T12:20:08.522Z,12.06
2023-11-07T12:22:36.309Z,12.15
2023-11-07T12:25:14.901Z,12.15
2023-11-07T12:27:42.716Z,12.09
2023-11-07T12:30:12.818Z,12.03
2023-11-07T12:32:39.414Z,12.07
2023-11-07T12:35:19.682Z,11.96
2023-11-07T12:37:47.505Z,11.93
2023-11-07T12:40:17.004Z,11.99
2023-11-07T12:42:54.469Z,12.03
2023-11-07T12:45:35.925Z,11.98
2023-11-07T12:48:07.753Z,11.83
2023-11-07T12:50:37.090Z,11.86
2023-11-07T12:53:06.308Z,11.79
2023-11-07T12:55:36.691Z,11.76
2023-11-07T12:58:04.849Z,11.87
2023-11-07T13:00:52.113Z,11.85
2023-11-07T13:03:23.813Z,11.78
2023-11-07T13:06:10.943Z,11.72
2023-11-07T13:08:42.695Z,11.73
2023-11-07T13:11:20.324Z,11.72
2023-11-07T13:13:52.017Z,11.74
2023-11-07T13:16:19.463Z,11.70
2023-11-07T13:18:48.131Z,11.75
2023-11-07T13:21:15.810Z,11.78
2023-11-07T13:23:42.358Z,11.75
2023-11-07T13:26:09.916Z,11.74
2023-11-07T13:28:38.063Z,11.73
2023-11-07T13:31:06.300Z,11.69
2023-11-07T13:33:33.073Z,11.67
2023-11-07T13:36:00.409Z,11.70
2023-11-07T13:38:27.551Z,11.68
2023-11-07T13:40:55.268Z,11.68
2023-11-07T13:43:21.996Z,11.87
2023-11-07T13:45:48.657Z,12.15
2023-11-07T13:48:15.567Z,12.12
2023-11-07T13:50:45.492Z,12.01
2023-11-07T13:53:13.579Z,12.08
2023-11-07T13:55:40.504Z,11.98
2023-11-07T13:58:07.972Z,11.87
2023-11-07T14:00:34.877Z,11.76
2023-11-07T14:03:03.036Z,11.68
2023-11-07T14:05:31.585Z,11.61
2023-11-07T14:08:00.325Z,11.52
2023-11-07T14:10:30.767Z,11.49
2023-11-07T14:12:58.681Z,11.43
2023-11-07T14:15:33.910Z,11.42
2023-11-07T14:18:08.127Z,11.41
2023-11-07T14:20:39.918Z,11.38
2023-11-07T14:23:07.878Z,11.34
2023-11-07T14:25:34.426Z,11.31
2023-11-07T14:28:05.807Z,11.41
2023-11-07T14:30:39.558Z,12.24
2023-11-07T14:33:07.616Z,12.68
2023-11-07T14:35:34.992Z,12.23
2023-11-07T14:38:01.566Z,12.08
2023-11-07T14:40:30.736Z,12.09
2023-11-07T14:42:59.048Z,11.97
2023-11-07T14:45:26.350Z,12.54
2023-11-07T14:47:54.448Z,13.12
2023-11-07T14:50:21.473Z,13.42
2023-11-07T14:52:49.289Z,13.00
2023-11-07T14:55:20.785Z,12.70
2023-11-07T14:57:49.742Z,12.69
2023-11-07T15:00:43.969Z,12.74
2023-11-07T15:03:12.050Z,12.33
2023-11-07T15:05:40.401Z,11.99
2023-11-07T15:08:07.426Z,11.93
2023-11-07T15:10:34.235Z,11.70
2023-11-07T15:13:02.193Z,11.54
2023-11-07T15:15:30.441Z,11.35
2023-11-07T15:17:58.835Z,11.26
2023-11-07T15:20:32.122Z,11.20
2023-11-07T15:23:01.942Z,11.15
2023-11-07T15:25:32.050Z,11.11
2023-11-07T15:27:59.134Z,11.09
2023-11-07T15:30:25.843Z,11.02
2023-11-07T15:32:52.647Z,10.98
2023-11-07T15:35:19.721Z,10.94
2023-11-07T15:37:47.896Z,10.90
2023-11-07T15:40:15.902Z,10.85
2023-11-07T15:42:43.808Z,10.82
2023-11-07T15:45:14.856Z,10.80
2023-11-07T15:47:43.730Z,10.79
2023-11-07T15:50:15.619Z,10.77
2023-11-07T15:52:51.440Z,10.76
2023-11-07T15:55:26.420Z,10.76
2023-11-07T15:57:52.920Z,10.72
2023-11-07T16:00:20.116Z,10.68
2023-11-07T16:02:49.240Z,10.63
2023-11-07T16:05:16.965Z,10.60
2023-11-07T16:07:44.480Z,10.56
2023-11-07T16:10:12.974Z,10.52
2023-11-07T16:12:46.466Z,10.46
2023-11-07T16:15:13.134Z,10.38
2023-11-07T16:17:46.575Z,10.37
2023-11-07T16:20:21.709Z,10.35
2023-11-07T16:22:48.641Z,10.33
2023-11-07T16:25:17.085Z,10.32
2023-11-07T16:27:43.960Z,10.31
2023-11-07T16:30:10.967Z,10.28
2023-11-07T16:32:37.697Z,10.29
2023-11-07T16:35:06.242Z,10.26
2023-11-07T16:37:36.111Z,10.25
2023-11-07T16:40:05.622Z,10.25
2023-11-07T16:42:32.542Z,10.21
2023-11-07T16:44:59.277Z,10.18
2023-11-07T16:47:25.865Z,10.17
2023-11-07T16:49:52.797Z,10.15
2023-11-07T16:52:22.013Z,10.15
2023-11-07T16:54:49.380Z,10.09
2023-11-07T16:57:16.718Z,10.05
2023-11-07T16:59:43.562Z,10.01
2023-11-07T17:02:10.749Z,9.98
2023-11-07T17:04:38.509Z,9.95
2023-11-07T17:07:06.439Z,9.93
2023-11-07T17:09:34.043Z,9.87
2023-11-07T17:12:01.184Z,9.87
2023-11-07T17:14:27.708Z,9.83
2023-11-07T17:16:54.804Z,9.80
2023-11-07T17:19:21.529Z,9.77
2023-11-07T17:21:49.182Z,9.75
2023-11-07T17:24:17.154Z,9.72
2023-11-07T17:26:43.741Z,9.70
2023-11-07T17:29:11.373Z,9.64
2023-11-07T17:31:38.886Z,9.64
2023-11-07T17:34:08.357Z,9.59
2023-11-07T17:36:36.193Z,9.57
2023-11-07T17:39:04.657Z,9.53
2023-11-07T17:41:33.364Z,9.49
2023-11-07T17:44:00.161Z,9.50
2023-11-07T17:46:26.874Z,9.46
2023-11-07T17:48:54.316Z,9.45
2023-11-07T17:51:23.883Z,9.40
2023-11-07T17:53:53.283Z,9.40
2023-11-07T17:56:21.138Z,9.39
2023-11-07T17:58:48.220Z,9.36
2023-11-07T18:01:19.963Z,9.32
2023-11-07T18:03:47.112Z,9.30
2023-11-07T18:06:13.846Z,9.28
2023-11-07T18:08:40.409Z,9.25
2023-11-07T18:11:08.576Z,9.21
2023-11-07T18:13:35.854Z,9.19
2023-11-07T18:16:02.538Z,9.19
2023-11-07T18:18:29.301Z,9.16
2023-11-07T18:20:56.085Z,9.11
2023-11-07T18:23:22.808Z,9.03
2023-11-07T18:25:49.384Z,9.02
2023-11-07T18:28:16.634Z,9.01
2023-11-07T18:30:45.022Z,9.00
2023-11-07T18:33:12.531Z,9.02
2023-11-07T18:35:39.509Z,9.00
2023-11-07T18:38:06.137Z,9.00
2023-11-07T18:40:32.730Z,9.03
2023-11-07T18:42:59.412Z,9.01
2023-11-07T18:45:25.964Z,9.00
2023-11-07T18:47:52.537Z,9.01
2023-11-07T18:50:19.212Z,9.00
2023-11-07T18:52:45.772Z,9.00
2023-11-07T18:55:12.263Z,8.98
2023-11-07T18:57:39.046Z,8.97
2023-11-07T19:00:09.644Z,8.96
2023-11-07T19:02:37.091Z,8.94
2023-11-07T19:05:05.621Z,8.94
2023-11-07T19:07:32.249Z,8.94
2023-11-07T19:09:58.874Z,8.95
2023-11-07T19:12:27.536Z,8.92
2023-11-07T19:14:55.572Z,8.90
2023-11-07T19:17:23.540Z,8.86
2023-11-07T19:19:52.894Z,8.84
2023-11-07T19:22:22.645Z,8.82
2023-11-07T19:24:49.189Z,8.76
2023-11-07T19:27:18.193Z,8.75
2023-11-07T19:29:44.785Z,8.75
2023-11-07T19:32:12.269Z,8.74
2023-11-07T19:34:38.862Z,8.72
2023-11-07T19:37:06.370Z,8.73
2023-11-07T19:39:35.455Z,8.68
2023-11-07T19:42:05.414Z,8.63
2023-11-07T19:44:34.421Z,8.61
2023-11-07T19:47:01.392Z,8.60
2023-11-07T19:49:28.658Z,8.54
2023-11-07T19:52:02.246Z,8.49
2023-11-07T19:54:28.996Z,8.48
2023-11-07T19:56:55.801Z,8.45
2023-11-07T19:59:22.734Z,8.45
2023-11-07T20:01:49.914Z,8.43
2023-11-07T20:04:16.798Z,8.44
2023-11-07T20:06:43.828Z,8.41
2023-11-07T20:09:10.539Z,8.41
2023-11-07T20:11:38.425Z,8.40
2023-11-07T20:14:05.179Z,8.41
2023-11-07T20:16:31.711Z,8.41
2023-11-07T20:18:58.827Z,8.39
2023-11-07T20:21:25.463Z,8.38
2023-11-07T20:23:54.510Z,8.40
2023-11-07T20:26:21.116Z,8.36
2023-11-07T20:28:50.825Z,8.32
2023-11-07T20:31:18.201Z,8.30
2023-11-07T20:33:49.697Z,8.25
2023-11-07T20:36:18.558Z,8.19
2023-11-07T20:38:47.292Z,8.16
2023-11-07T20:41:18.297Z,8.14
2023-11-07T20:43:45.114Z,8.12
2023-11-07T20:46:27.154Z,8.16
2023-11-07T20:49:00.290Z,8.19
2023-11-07T20:51:26.936Z,8.20
2023-11-07T20:53:54.509Z,8.20
2023-11-07T20:56:23.375Z,8.22
2023-11-07T20:58:50.049Z,8.26
2023-11-07T21:01:17.777Z,8.26
2023-11-07T21:03:44.411Z,8.32
2023-11-07T21:06:11.654Z,8.31
2023-11-07T21:08:38.925Z,8.30
2023-11-07T21:11:05.458Z,8.29
2023-11-07T21:13:32.124Z,8.28
2023-11-07T21:15:58.636Z,8.29
2023-11-07T21:18:25.207Z,8.29
2023-11-07T21:20:51.771Z,8.27
2023-11-07T21:23:18.831Z,8.20
2023-11-07T21:25:46.002Z,8.19
2023-11-07T21:28:12.488Z,8.17
2023-11-07T21:30:39.161Z,8.16
2023-11-07T21:33:07.032Z,8.15
2023-11-07T21:35:33.736Z,8.16
2023-11-07T21:38:00.218Z,8.16
2023-11-07T21:40:26.765Z,8.16
2023-11-07T21:42:53.291Z,8.15
2023-11-07T21:45:21.133Z,8.13
2023-11-07T21:47:48.356Z,8.11
2023-11-07T21:50:15.055Z,8.12
2023-11-07T21:52:41.791Z,8.09
2023-11-07T21:55:08.723Z,8.07
2023-11-07T21:57:37.533Z,8.09
2023-11-07T22:00:05.100Z,8.09
2023-11-07T22:02:31.749Z,8.09
2023-11-07T22:04:58.311Z,8.08
2023-11-07T22:07:27.783Z,8.06
2023-11-07T22:09:54.474Z,8.06
2023-11-07T22:12:21.031Z,8.05
2023-11-07T22:14:48.434Z,8.06
2023-11-07T22:17:14.965Z,8.07
2023-11-07T22:19:41.452Z,8.07
2023-11-07T22:22:08.135Z,8.08
2023-11-07T22:24:35.340Z,8.09
2023-11-07T22:27:02.068Z,8.07
2023-11-07T22:29:28.801Z,8.07
2023-11-07T22:31:55.332Z,8.06
2023-11-07T22:34:22.049Z,8.04
2023-11-07T22:36:48.706Z,8.03
2023-11-07T22:39:15.390Z,8.02
2023-11-07T22:41:42.128Z,8.01
2023-11-07T22:44:08.744Z,8.03
2023-11-07T22:46:35.266Z,8.00
2023-11-07T22:49:02.067Z,8.00
2023-11-07T22:51:28.651Z,8.01
2023-11-07T22:53:55.147Z,8.02
2023-11-07T22:56:22.870Z,8.03
2023-11-07T22:58:49.386Z,8.03
2023-11-07T23:01:16.594Z,8.01
2023-11-07T23:03:43.263Z,8.03
2023-11-07T23:06:10.085Z,8.05
2023-11-07T23:08:36.680Z,8.09
2023-11-07T23:11:03.427Z,8.12
2023-11-07T23:13:30.660Z,8.14
2023-11-07T23:15:57.130Z,8.14
2023-11-07T23:18:23.735Z,8.13
2023-11-07T23:20:50.516Z,8.15
2023-11-07T23:23:17.127Z,8.14
2023-11-07T23:25:48.090Z,8.12
2023-11-07T23:28:14.719Z,8.09
2023-11-07T23:30:41.547Z,8.09
2023-11-07T23:33:08.377Z,8.06
2023-11-07T23:35:34.947Z,8.05
2023-11-07T23:38:01.580Z,8.01
2023-11-07T23:40:29.263Z,7.99
2023-11-07T23:42:55.852Z,7.98
2023-11-07T23:45:23.320Z,7.96
2023-11-07T23:47:50.552Z,7.96
2023-11-07T23:50:17.441Z,7.95
2023-11-07T23:52:44.051Z,7.93
2023-11-07T23:55:10.648Z,7.92
2023-11-07T23:57:37.873Z,7.91
